METAR Data
IDs: Format: Raw Decoded Include TAF

Data at: 2025 UTC 13 Nov 2019

METAR for:KDBQ (Dubuque Rgnl, IA, US)
Text:KDBQ 131953Z 20012KT 10SM OVC050 M04/M11 A2998 RMK AO2 SLP170 T10441106
Temperature: -4.4°C ( 24°F)
Dewpoint:-10.6°C ( 13°F) [RH = 62%]
Pressure (altimeter):29.98 inches Hg (1015.3 mb) [Sea level pressure: 1017.0 mb]
Winds:from the SSW (200 degrees) at 14 MPH (12 knots; 6.2 m/s)
Visibility:10 or more sm (16+ km)
Ceiling:5000 feet AGL
Clouds: overcast cloud deck at 5000 feet AGL